Bodega Bay, CA (94923)

11:21 PM PST on December 07, 2016 (GMT -0800)
Oyster Catcher Loop | | Change Station

Elev 173 ft 38.31 °N, 123.01 °W | Updated 11 minutes ago

Mostly Cloudy
Mostly Cloudy
41.4 °F
Feels Like 33 °F
N
15.5
Wind Variable Wind from ENE
Gusts 26.1 mph

Today
High -- | Low -- °F
--% Chance of Precip.
Yesterday
High -- | Low -- °F
Precip. -- in
Pressure 30.07 in
Visibility 2.5 miles
Clouds Overcast 1600 ft
Windchill 33 °F
Dew Point 39 °F
Humidity 90%
Rainfall 0.33 in
Snow Depth Not available.
7:16 AM 4:51 PM
First Quarter, 60% visible
METAR KSTS 080653Z AUTO 08006KT 2 1/2SM RA BR OVC016 05/04 A3008 RMK AO2 SLP181 P0011 T00500044
Pressure 30.07 in
Visibility 2.5 miles
Clouds Overcast 1600 ft
Windchill 33 °F
Dew Point 39 °F
Humidity 90%
Rainfall 0.33 in
Snow Depth Not available.
7:16 AM 4:51 PM
First Quarter, 60% visible
METAR KSTS 080653Z AUTO 08006KT 2 1/2SM RA BR OVC016 05/04 A3008 RMK AO2 SLP181 P0011 T00500044

10-Day Weather Forecast

Almanac

Astronomy

Dec. 07, 2016 Rise Set
Actual Time
Civil Twilight
Nautical Twilight
Astronomical Twilight
Moon
Length of Visible Light
Length of Day
Tomorrow will be .
, % of the Moon is Illuminated

Today's Extremes

State Highs State Lows

Community

WunderPhotos

Upload Photos

1,956,259 photos uploaded!

WunderBlog® & News

Nearby

Air Quality

  Air Quality AQ Index Pollutant
Not available.

Snow Depth

Station Depth Elevation

Earthquake Activity

City Distance Mag. Time & Date
Minimum magnitude displayed is 2.5.

Coastal Water Temperatures

Place Temperature

Stations

Nearby Weather Stations

Station Location Temp. Windchill Dew Point Humidity Wind Precip. Elev Updated Type
                   

Watches & Warnings

There are currently no watches in effect.